createdAt,value
2023-10-09T00:02:11.475Z,102181.25
2023-10-09T00:04:41.914Z,102189.19
2023-10-09T00:07:09.617Z,102183.91
2023-10-09T00:09:48.612Z,102182.09
2023-10-09T00:12:17.510Z,102176.03
2023-10-09T00:14:49.007Z,102175.28
2023-10-09T00:17:17.706Z,102172.78
2023-10-09T00:19:51.017Z,102172.03
2023-10-09T00:22:27.367Z,102171.25
2023-10-09T00:25:21.098Z,102170.34
2023-10-09T00:27:47.687Z,102165.03
2023-10-09T00:30:19.219Z,102177.34
2023-10-09T00:33:00.659Z,102177.34
2023-10-09T00:35:37.808Z,102181.69
2023-10-09T00:38:21.952Z,102180.81
2023-10-09T00:40:57.995Z,102173.56
2023-10-09T00:43:30.408Z,102173.38
2023-10-09T00:46:20.499Z,102179.63
2023-10-09T00:48:53.522Z,102176.03
2023-10-09T00:51:23.153Z,102174.25
2023-10-09T00:53:53.956Z,102177.00
2023-10-09T00:56:39.643Z,102168.09
2023-10-09T00:59:11.235Z,102159.22
2023-10-09T01:01:41.272Z,102160.91
2023-10-09T01:04:19.131Z,102152.97
2023-10-09T01:07:05.591Z,102147.69
2023-10-09T01:09:38.314Z,102150.16
2023-10-09T01:12:05.683Z,102137.69
2023-10-09T01:14:37.074Z,102138.81
2023-10-09T01:17:10.158Z,102137.94
2023-10-09T01:19:37.528Z,102145.88
2023-10-09T01:22:13.851Z,102140.53
2023-10-09T01:24:41.292Z,102133.31
2023-10-09T01:27:15.923Z,102132.47
2023-10-09T01:29:43.156Z,102131.63
2023-10-09T01:32:17.594Z,102130.66
2023-10-09T01:34:45.317Z,102138.72
2023-10-09T01:37:19.946Z,102134.44
2023-10-09T01:39:49.282Z,102132.56
2023-10-09T01:42:31.315Z,102126.25
2023-10-09T01:44:59.900Z,102120.84
2023-10-09T01:47:32.524Z,102119.91
2023-10-09T01:49:59.155Z,102118.13
2023-10-09T01:52:25.552Z,102113.69
2023-10-09T01:54:52.843Z,102127.88
2023-10-09T01:57:24.368Z,102120.09
2023-10-09T01:59:54.287Z,102113.00
2023-10-09T02:02:28.708Z,102103.16
2023-10-09T02:05:13.715Z,102103.94
2023-10-09T02:07:52.670Z,102101.19
2023-10-09T02:10:32.351Z,102104.03
2023-10-09T02:13:10.194Z,102097.13
2023-10-09T02:15:47.318Z,102089.28
2023-10-09T02:18:25.108Z,102082.28
2023-10-09T02:21:06.315Z,102084.16
2023-10-09T02:23:40.535Z,102079.88
2023-10-09T02:26:08.442Z,102079.06
2023-10-09T02:28:35.892Z,102077.34
2023-10-09T02:31:11.236Z,102074.84
2023-10-09T02:33:40.345Z,102071.28
2023-10-09T02:36:07.866Z,102075.97
2023-10-09T02:38:36.620Z,102077.69
2023-10-09T02:41:05.977Z,102074.94
2023-10-09T02:43:49.041Z,102067.09
2023-10-09T02:46:19.708Z,102066.91
2023-10-09T02:48:53.761Z,102066.06
2023-10-09T02:51:29.395Z,102061.72
2023-10-09T02:54:00.331Z,102059.94
2023-10-09T02:56:44.175Z,102059.75
2023-10-09T02:59:11.013Z,102048.31
2023-10-09T03:01:40.289Z,102051.81
2023-10-09T03:04:07.733Z,102041.13
2023-10-09T03:06:41.315Z,102035.72
2023-10-09T03:09:17.689Z,102040.09
2023-10-09T03:11:47.530Z,102029.50
2023-10-09T03:14:14.570Z,102040.28
2023-10-09T03:16:41.134Z,102042.94
2023-10-09T03:19:08.403Z,102036.75
2023-10-09T03:21:34.920Z,102040.28
2023-10-09T03:24:05.852Z,102038.75
2023-10-09T03:26:32.608Z,102036.84
2023-10-09T03:29:02.103Z,102035.91
2023-10-09T03:31:32.939Z,102036.03
2023-10-09T03:33:59.642Z,102044.06
2023-10-09T03:36:27.862Z,102038.75
2023-10-09T03:38:59.466Z,102031.75
2023-10-09T03:41:30.284Z,102021.91
2023-10-09T03:43:56.869Z,102031.56
2023-10-09T03:46:27.350Z,102039.59
2023-10-09T03:48:57.200Z,102071.47
2023-10-09T03:51:24.419Z,102077.00
2023-10-09T03:53:53.873Z,102082.97
2023-10-09T03:56:22.400Z,102082.06
2023-10-09T03:58:50.607Z,102075.81
2023-10-09T04:01:25.283Z,102072.19
2023-10-09T04:04:01.824Z,102076.47
2023-10-09T04:06:32.102Z,102072.97
2023-10-09T04:09:00.171Z,102074.69
2023-10-09T04:11:26.939Z,102071.16
2023-10-09T04:14:01.005Z,102061.47
2023-10-09T04:16:35.278Z,102068.38
2023-10-09T04:19:12.101Z,102072.72
2023-10-09T04:21:39.239Z,102065.63
2023-10-09T04:24:10.091Z,102066.38
2023-10-09T04:26:38.226Z,102073.41
2023-10-09T04:29:05.037Z,102055.81
2023-10-09T04:31:38.376Z,102068.94
2023-10-09T04:34:23.654Z,102053.06
2023-10-09T04:36:52.361Z,102034.44
2023-10-09T04:39:31.284Z,102027.25
2023-10-09T04:42:17.740Z,102042.28
2023-10-09T04:45:03.135Z,102046.72
2023-10-09T04:47:40.066Z,102052.03
2023-10-09T04:50:36.987Z,102045.78
2023-10-09T04:53:18.870Z,102041.22
2023-10-09T04:55:55.293Z,102033.28
2023-10-09T04:58:29.180Z,102042.94
2023-10-09T05:00:59.074Z,102038.41
2023-10-09T05:03:30.675Z,102039.25
2023-10-09T05:06:00.032Z,102049.75
2023-10-09T05:08:27.928Z,102039.16
2023-10-09T05:11:00.199Z,102046.16
2023-10-09T05:13:40.142Z,102049.69
2023-10-09T05:16:14.592Z,102041.66
2023-10-09T05:18:41.143Z,102058.47
2023-10-09T05:21:13.329Z,102065.28
2023-10-09T05:23:49.741Z,102068.59
2023-10-09T05:26:35.150Z,102075.72
2023-10-09T05:29:11.123Z,102073.06
2023-10-09T05:31:57.114Z,102078.16
2023-10-09T05:34:35.066Z,102093.84
2023-10-09T05:37:19.130Z,102079.50
2023-10-09T05:39:59.319Z,102093.38
2023-10-09T05:42:43.796Z,102091.50
2023-10-09T05:45:19.402Z,102094.06
2023-10-09T05:48:02.964Z,102097.47
2023-10-09T05:50:30.507Z,102102.59
2023-10-09T05:53:06.140Z,102111.09
2023-10-09T05:55:51.284Z,102104.75
2023-10-09T05:58:36.039Z,102109.22
2023-10-09T06:01:20.924Z,102102.03
2023-10-09T06:03:55.013Z,102093.13
2023-10-09T06:06:35.037Z,102070.88
2023-10-09T06:09:14.702Z,102054.16
2023-10-09T06:11:55.292Z,102042.72
2023-10-09T06:14:26.521Z,102048.00
2023-10-09T06:17:20.234Z,102063.03
2023-10-09T06:19:49.909Z,102062.09
2023-10-09T06:22:51.778Z,102072.59
2023-10-09T06:25:19.204Z,102068.16
2023-10-09T06:27:58.402Z,102053.22
2023-10-09T06:30:26.106Z,102053.22
2023-10-09T06:32:59.460Z,102047.91
2023-10-09T06:35:32.777Z,102061.91
2023-10-09T06:38:03.157Z,102057.56
2023-10-09T06:40:55.325Z,102069.00
2023-10-09T06:43:23.138Z,102077.91
2023-10-09T06:45:56.295Z,102092.97
2023-10-09T06:48:35.296Z,102100.91
2023-10-09T06:51:16.973Z,102101.00
2023-10-09T06:53:55.740Z,102107.16
2023-10-09T06:56:32.181Z,102112.44
2023-10-09T06:59:16.683Z,102106.94
2023-10-09T07:01:44.056Z,102102.50
2023-10-09T07:04:19.744Z,102101.56
2023-10-09T07:06:47.421Z,102105.84
2023-10-09T07:09:14.862Z,102105.84
2023-10-09T07:11:49.488Z,102103.19
2023-10-09T07:14:33.840Z,102088.97
2023-10-09T07:17:02.022Z,102106.47
2023-10-09T07:19:35.693Z,102103.81
2023-10-09T07:22:05.624Z,102102.78
2023-10-09T07:24:44.822Z,102099.19
2023-10-09T07:27:14.074Z,102088.59
2023-10-09T07:29:49.623Z,102078.84
2023-10-09T07:32:22.994Z,102066.44
2023-10-09T07:35:00.228Z,102050.44
2023-10-09T07:37:35.623Z,102039.75
2023-10-09T07:40:09.273Z,102026.47
2023-10-09T07:42:41.592Z,102033.41
2023-10-09T07:45:35.116Z,102059.81
2023-10-09T07:48:01.886Z,102065.88
2023-10-09T07:50:42.086Z,102085.13
2023-10-09T07:53:27.100Z,102083.97
2023-10-09T07:56:07.484Z,102093.53
2023-10-09T07:58:47.045Z,102094.31
2023-10-09T08:01:17.539Z,102100.38
2023-10-09T08:03:49.937Z,102097.72
2023-10-09T08:06:36.440Z,102105.47
2023-10-09T08:09:20.149Z,102089.34
2023-10-09T08:12:15.174Z,102105.19
2023-10-09T08:14:46.542Z,102116.44
2023-10-09T08:17:16.584Z,102113.69
2023-10-09T08:19:54.446Z,102117.31
2023-10-09T08:22:25.147Z,102118.69
2023-10-09T08:24:58.530Z,102118.53
2023-10-09T08:27:49.111Z,102106.09
2023-10-09T08:30:18.579Z,102116.72
2023-10-09T08:35:36.821Z,102127.78
2023-10-09T08:38:11.619Z,102134.78
2023-10-09T08:40:40.842Z,102155.81
2023-10-09T08:43:11.092Z,102162.44
2023-10-09T08:45:41.663Z,102156.84
2023-10-09T08:48:12.619Z,102153.03
2023-10-09T08:50:40.451Z,102156.34
2023-10-09T08:53:07.445Z,102151.50
2023-10-09T08:55:33.933Z,102161.72
2023-10-09T08:58:01.101Z,102167.69
2023-10-09T09:00:34.347Z,102166.53
2023-10-09T09:03:01.611Z,102167.09
2023-10-09T09:05:30.950Z,102160.84
2023-10-09T09:08:00.648Z,102161.50
2023-10-09T09:10:36.577Z,102166.81
2023-10-09T09:13:04.841Z,102162.88
2023-10-09T09:15:31.911Z,102155.47
2023-10-09T09:18:12.727Z,102165.25
2023-10-09T09:20:41.578Z,102182.56
2023-10-09T09:23:13.514Z,102181.44
2023-10-09T09:25:49.081Z,102185.59
2023-10-09T09:28:22.496Z,102181.56
2023-10-09T09:30:52.317Z,102189.34
2023-10-09T09:33:31.504Z,102184.56
2023-10-09T09:36:08.001Z,102185.13
2023-10-09T09:38:52.369Z,102181.19
2023-10-09T09:41:26.270Z,102174.06
2023-10-09T09:43:57.137Z,102173.88
2023-10-09T09:46:33.749Z,102170.06
2023-10-09T09:49:04.968Z,102168.16
2023-10-09T09:51:32.473Z,102175.16
2023-10-09T09:53:59.201Z,102167.72
2023-10-09T09:56:26.896Z,102184.19
2023-10-09T09:58:54.773Z,102183.91
2023-10-09T10:01:26.608Z,102177.63
2023-10-09T10:04:01.017Z,102181.03
2023-10-09T10:06:33.304Z,102186.25
2023-10-09T10:09:00.368Z,102179.75
2023-10-09T10:12:06.777Z,102184.97
2023-10-09T10:14:53.713Z,102170.09
2023-10-09T10:17:23.528Z,102173.50
2023-10-09T10:20:05.687Z,102172.53
2023-10-09T10:22:34.035Z,102167.84
2023-10-09T10:25:03.968Z,102176.47
2023-10-09T10:27:46.109Z,102181.06
2023-10-09T10:30:12.833Z,102186.97
2023-10-09T10:32:54.347Z,102192.22
2023-10-09T10:35:33.265Z,102199.22
2023-10-09T10:38:06.091Z,102205.41
2023-10-09T10:40:47.767Z,102199.03
2023-10-09T10:43:33.463Z,102192.75
2023-10-09T10:46:31.603Z,102185.50
2023-10-09T10:49:16.498Z,102195.19
2023-10-09T10:51:49.238Z,102190.63
2023-10-09T10:54:46.848Z,102188.56
2023-10-09T10:57:21.004Z,102191.16
2023-10-09T10:59:50.482Z,102185.84
2023-10-09T11:02:29.236Z,102184.00
2023-10-09T11:04:57.103Z,102189.03
2023-10-09T11:07:28.225Z,102195.63
2023-10-09T11:10:05.844Z,102191.69
2023-10-09T11:12:43.689Z,102183.38
2023-10-09T11:15:22.840Z,102183.19
2023-10-09T11:18:06.382Z,102182.81
2023-10-09T11:20:36.017Z,102185.41
2023-10-09T11:23:12.117Z,102190.38
2023-10-09T11:25:51.746Z,102185.81
2023-10-09T11:28:43.515Z,102192.72
2023-10-09T11:31:17.046Z,102196.22
2023-10-09T11:33:52.442Z,102195.16
2023-10-09T11:36:33.601Z,102193.25
2023-10-09T11:39:19.880Z,102193.00
2023-10-09T11:41:50.589Z,102189.16
2023-10-09T11:44:26.160Z,102185.53
2023-10-09T11:47:19.304Z,102179.03
2023-10-09T11:50:02.664Z,102187.00
2023-10-09T11:52:32.872Z,102186.81
2023-10-09T11:54:59.858Z,102193.84
2023-10-09T11:57:34.461Z,102194.81
2023-10-09T12:00:02.159Z,102192.34
2023-10-09T12:02:28.882Z,102192.56
2023-10-09T12:04:58.591Z,102178.50
2023-10-09T12:07:26.237Z,102183.00
2023-10-09T12:09:57.402Z,102181.19
2023-10-09T12:12:27.406Z,102177.69
2023-10-09T12:14:54.612Z,102172.13
2023-10-09T12:17:25.750Z,102171.03
2023-10-09T12:19:52.498Z,102179.78
2023-10-09T12:22:21.437Z,102167.44
2023-10-09T12:24:48.819Z,102166.59
2023-10-09T12:27:15.346Z,102170.00
2023-10-09T12:29:47.195Z,102169.88
2023-10-09T12:32:20.597Z,102168.19
2023-10-09T12:34:51.448Z,102163.94
2023-10-09T12:37:21.781Z,102165.72
2023-10-09T12:39:48.875Z,102163.06
2023-10-09T12:42:17.907Z,102167.66
2023-10-09T12:44:45.477Z,102168.50
2023-10-09T12:47:12.443Z,102163.94
2023-10-09T12:49:45.037Z,102172.75
2023-10-09T12:52:18.128Z,102171.78
2023-10-09T12:54:47.632Z,102181.50
2023-10-09T12:57:17.019Z,102180.66
2023-10-09T12:59:46.767Z,102181.50
2023-10-09T13:02:15.086Z,102182.44
2023-10-09T13:04:43.684Z,102183.41
2023-10-09T13:07:10.588Z,102185.34
2023-10-09T13:09:43.668Z,102180.09
2023-10-09T13:12:19.042Z,102192.69
2023-10-09T13:14:46.589Z,102192.69
2023-10-09T13:17:13.124Z,102189.16
2023-10-09T13:19:39.711Z,102183.84
2023-10-09T13:22:13.963Z,102184.72
2023-10-09T13:24:41.445Z,102177.56
2023-10-09T13:27:10.774Z,102178.31
2023-10-09T13:29:41.084Z,102189.06
2023-10-09T13:32:14.693Z,102188.97
2023-10-09T13:34:45.616Z,102192.25
2023-10-09T13:37:15.057Z,102181.69
2023-10-09T13:39:53.184Z,102187.88
2023-10-09T13:42:19.712Z,102184.34
2023-10-09T13:44:49.721Z,102181.69
2023-10-09T13:47:20.561Z,102180.75
2023-10-09T13:49:51.662Z,102188.72
2023-10-09T13:52:23.138Z,102189.59
2023-10-09T13:54:50.814Z,102186.06
2023-10-09T13:57:17.650Z,102179.66
2023-10-09T13:59:49.997Z,102176.16
2023-10-09T14:02:22.208Z,102168.19
2023-10-09T14:04:49.160Z,102167.22
2023-10-09T14:07:18.046Z,102176.16
2023-10-09T14:09:45.511Z,102173.50
2023-10-09T14:12:12.462Z,102172.53
2023-10-09T14:14:48.919Z,102170.72
2023-10-09T14:17:15.880Z,102174.25
2023-10-09T14:19:48.185Z,102183.19
2023-10-09T14:22:17.098Z,102175.41
2023-10-09T14:24:47.290Z,102170.09
2023-10-09T14:27:18.717Z,102170.22
2023-10-09T14:29:46.583Z,102173.72
2023-10-09T14:32:16.666Z,102175.41
2023-10-09T14:34:47.140Z,102176.16
2023-10-09T14:37:16.110Z,102179.78
2023-10-09T14:39:43.849Z,102178.81
2023-10-09T14:42:13.939Z,102181.50
2023-10-09T14:44:41.629Z,102173.50
2023-10-09T14:47:08.673Z,102177.88
2023-10-09T14:49:44.568Z,102178.72
2023-10-09T14:52:11.641Z,102179.56
2023-10-09T14:54:39.443Z,102169.88
2023-10-09T14:57:07.264Z,102174.25
2023-10-09T14:59:34.432Z,102163.59
2023-10-09T15:02:01.631Z,102181.25
2023-10-09T15:04:28.261Z,102177.75
2023-10-09T15:06:54.757Z,102175.22
2023-10-09T15:09:24.136Z,102168.19
2023-10-09T15:11:52.049Z,102178.81
2023-10-09T15:14:22.094Z,102175.31
2023-10-09T15:16:48.940Z,102168.28
2023-10-09T15:19:17.524Z,102154.13
2023-10-09T15:21:47.242Z,102159.69
2023-10-09T15:24:19.391Z,102165.97
2023-10-09T15:26:53.537Z,102162.53
2023-10-09T15:29:24.636Z,102160.88
2023-10-09T15:31:51.585Z,102166.28
2023-10-09T15:34:19.746Z,102172.47
2023-10-09T15:36:48.187Z,102168.84
2023-10-09T15:39:20.090Z,102168.09
2023-10-09T15:41:47.738Z,102165.44
2023-10-09T15:44:15.024Z,102175.97
2023-10-09T15:46:41.757Z,102177.69
2023-10-09T15:49:10.670Z,102164.38
2023-10-09T15:51:37.191Z,102169.56
2023-10-09T15:54:03.719Z,102182.75
2023-10-09T15:56:30.264Z,102180.97
2023-10-09T15:58:57.458Z,102186.41
2023-10-09T16:01:23.923Z,102183.84
2023-10-09T16:03:51.210Z,102192.81
2023-10-09T16:06:19.487Z,102180.47
2023-10-09T16:08:51.099Z,102193.75
2023-10-09T16:11:24.717Z,102194.72
2023-10-09T16:13:52.613Z,102200.88
2023-10-09T16:16:31.835Z,102200.16
2023-10-09T16:19:01.205Z,102201.94
2023-10-09T16:21:28.060Z,102200.28
2023-10-09T16:24:00.318Z,102200.28
2023-10-09T16:26:27.775Z,102202.19
2023-10-09T16:28:54.486Z,102199.53
2023-10-09T16:31:21.338Z,102203.91
2023-10-09T16:33:50.455Z,102209.22
2023-10-09T16:36:16.973Z,102209.34
2023-10-09T16:38:44.672Z,102214.66
2023-10-09T16:41:11.315Z,102218.16
2023-10-09T16:43:44.636Z,102212.06
2023-10-09T16:46:13.984Z,102222.00
2023-10-09T16:48:40.831Z,102215.94
2023-10-09T16:51:09.884Z,102223.06
2023-10-09T16:53:37.990Z,102217.00
2023-10-09T16:56:10.913Z,102222.44
2023-10-09T16:58:39.038Z,102220.09
2023-10-09T17:01:12.325Z,102222.03
2023-10-09T17:03:43.278Z,102230.84
2023-10-09T17:06:11.060Z,102234.56
2023-10-09T17:08:43.565Z,102232.88
2023-10-09T17:11:21.310Z,102233.94
2023-10-09T17:13:51.266Z,102230.44
2023-10-09T17:16:20.714Z,102232.25
2023-10-09T17:18:50.818Z,102224.34
2023-10-09T17:21:17.611Z,102234.16
2023-10-09T17:23:47.927Z,102238.63
2023-10-09T17:26:19.551Z,102245.00
2023-10-09T17:28:47.065Z,102231.81
2023-10-09T17:31:14.142Z,102238.00
2023-10-09T17:33:44.303Z,102249.59
2023-10-09T17:36:12.841Z,102239.91
2023-10-09T17:38:39.464Z,102249.59
2023-10-09T17:41:09.757Z,102238.06
2023-10-09T17:43:36.704Z,102250.53
2023-10-09T17:46:05.462Z,102255.09
2023-10-09T17:48:32.476Z,102250.75
2023-10-09T17:51:00.258Z,102251.72
2023-10-09T17:53:30.192Z,102249.25
2023-10-09T17:55:57.182Z,102255.53
2023-10-09T17:58:27.295Z,102253.69
2023-10-09T18:01:00.008Z,102251.84
2023-10-09T18:03:31.038Z,102251.84
2023-10-09T18:05:58.571Z,102248.38
2023-10-09T18:08:26.907Z,102260.91
2023-10-09T18:10:57.807Z,102261.03
2023-10-09T18:13:26.076Z,102258.19
2023-10-09T18:16:08.791Z,102267.88
2023-10-09T18:18:39.544Z,102260.91
2023-10-09T18:21:07.600Z,102261.78
2023-10-09T18:23:36.752Z,102265.28
2023-10-09T18:26:07.895Z,102267.94
2023-10-09T18:28:37.772Z,102268.06
2023-10-09T18:31:11.009Z,102273.50
2023-10-09T18:33:37.490Z,102268.19
2023-10-09T18:36:10.590Z,102276.25
2023-10-09T18:38:39.513Z,102274.34
2023-10-09T18:41:07.862Z,102281.47
2023-10-09T18:43:41.205Z,102280.72
2023-10-09T18:46:12.438Z,102282.53
2023-10-09T18:48:39.437Z,102285.19
2023-10-09T18:51:05.915Z,102273.78
2023-10-09T18:53:32.878Z,102273.78
2023-10-09T18:56:02.767Z,102275.63
2023-10-09T18:58:29.408Z,102275.50
2023-10-09T19:01:07.385Z,102271.13
2023-10-09T19:03:34.388Z,102283.59
2023-10-09T19:06:00.796Z,102281.03
2023-10-09T19:08:27.470Z,102280.19
2023-10-09T19:11:01.466Z,102277.75
2023-10-09T19:13:28.816Z,102287.50
2023-10-09T19:15:56.655Z,102283.91
2023-10-09T19:18:25.773Z,102282.09
2023-10-09T19:20:53.826Z,102277.75
2023-10-09T19:23:21.088Z,102280.28
2023-10-09T19:25:47.960Z,102282.09
2023-10-09T19:28:16.031Z,102289.97
2023-10-09T19:30:42.719Z,102294.44
2023-10-09T19:33:09.272Z,102300.63
2023-10-09T19:35:35.876Z,102289.09
2023-10-09T19:38:02.431Z,102297.09
2023-10-09T19:40:29.961Z,102293.69
2023-10-09T19:42:57.915Z,102293.69
2023-10-09T19:45:24.421Z,102291.03
2023-10-09T19:47:51.151Z,102288.38
2023-10-09T19:50:18.088Z,102286.56
2023-10-09T19:52:51.966Z,102290.38
2023-10-09T19:55:22.441Z,102288.91
2023-10-09T19:57:49.046Z,102286.34
2023-10-09T20:00:22.248Z,102276.44
2023-10-09T20:02:54.884Z,102279.97
2023-10-09T20:05:23.866Z,102286.13
2023-10-09T20:07:50.709Z,102284.53
2023-10-09T20:10:19.370Z,102286.25
2023-10-09T20:12:46.295Z,102283.56
2023-10-09T20:15:14.460Z,102288.13
2023-10-09T20:17:44.318Z,102288.34
2023-10-09T20:20:12.538Z,102300.16
2023-10-09T20:22:40.369Z,102294.72
2023-10-09T20:25:18.386Z,102290.38
2023-10-09T20:27:44.820Z,102289.41
2023-10-09T20:30:12.257Z,102292.06
2023-10-09T20:32:42.641Z,102291.97
2023-10-09T20:35:16.432Z,102299.00
2023-10-09T20:37:44.727Z,102299.94
2023-10-09T20:40:18.812Z,102307.25
2023-10-09T20:42:47.316Z,102308.22
2023-10-09T20:45:14.025Z,102299.41
2023-10-09T20:47:47.797Z,102295.56
2023-10-09T20:50:18.041Z,102304.41
2023-10-09T20:52:46.371Z,102302.81
2023-10-09T20:55:13.032Z,102302.91
2023-10-09T20:57:41.606Z,102300.25
2023-10-09T21:00:20.048Z,102296.75
2023-10-09T21:02:56.349Z,102302.91
2023-10-09T21:05:24.639Z,102298.44
2023-10-09T21:07:54.376Z,102304.72
2023-10-09T21:10:22.061Z,102296.75
2023-10-09T21:12:50.238Z,102302.91
2023-10-09T21:15:23.348Z,102300.25
2023-10-09T21:17:53.209Z,102304.91
2023-10-09T21:20:20.614Z,102319.16
2023-10-09T21:22:58.782Z,102316.69
2023-10-09T21:25:26.627Z,102321.06
2023-10-09T21:27:55.362Z,102314.91
2023-10-09T21:30:24.237Z,102317.66
2023-10-09T21:32:51.318Z,102315.09
2023-10-09T21:35:19.288Z,102309.88
2023-10-09T21:37:51.831Z,102311.72
2023-10-09T21:40:24.495Z,102301.06
2023-10-09T21:42:54.155Z,102298.50
2023-10-09T21:45:22.582Z,102297.66
2023-10-09T21:47:56.257Z,102303.19
2023-10-09T21:50:27.481Z,102309.44
2023-10-09T21:52:58.947Z,102304.25
2023-10-09T21:55:28.938Z,102303.47
2023-10-09T21:57:56.405Z,102308.03
2023-10-09T22:00:32.330Z,102303.59
2023-10-09T22:03:06.384Z,102309.84
2023-10-09T22:05:34.043Z,102312.91
2023-10-09T22:08:00.936Z,102309.50
2023-10-09T22:10:29.389Z,102311.28
2023-10-09T22:12:55.878Z,102315.66
2023-10-09T22:15:23.224Z,102305.97
2023-10-09T22:17:49.702Z,102302.47
2023-10-09T22:20:20.875Z,102296.28
2023-10-09T22:22:57.642Z,102294.63
2023-10-09T22:25:26.160Z,102297.47
2023-10-09T22:28:14.630Z,102292.34
2023-10-09T22:30:44.277Z,102289.03
2023-10-09T22:33:20.866Z,102290.09
2023-10-09T22:35:47.480Z,102279.47
2023-10-09T22:38:16.956Z,102288.50
2023-10-09T22:40:49.633Z,102293.13
2023-10-09T22:43:18.071Z,102285.38
2023-10-09T22:45:44.581Z,102276.44
2023-10-09T22:48:15.420Z,102273.78
2023-10-09T22:50:48.894Z,102265.09
2023-10-09T22:53:34.707Z,102263.47
2023-10-09T22:56:02.470Z,102269.94
2023-10-09T22:58:37.710Z,102271.72
2023-10-09T23:01:22.770Z,102271.06
2023-10-09T23:04:14.109Z,102267.66
2023-10-09T23:06:46.247Z,102274.00
2023-10-09T23:09:17.412Z,102276.28
2023-10-09T23:11:54.971Z,102270.97
2023-10-09T23:14:28.873Z,102264.72
2023-10-09T23:17:02.859Z,102274.59
2023-10-09T23:19:42.131Z,102272.22
2023-10-09T23:22:12.554Z,102271.47
2023-10-09T23:25:09.366Z,102273.28
2023-10-09T23:27:43.869Z,102268.16
2023-10-09T23:30:27.195Z,102271.78
2023-10-09T23:33:10.543Z,102267.50
2023-10-09T23:36:04.990Z,102267.69
2023-10-09T23:38:31.747Z,102270.34
2023-10-09T23:40:59.750Z,102274.81
2023-10-09T23:43:32.357Z,102275.84
2023-10-09T23:45:59.505Z,102266.28
2023-10-09T23:48:30.064Z,102275.09
2023-10-09T23:51:02.239Z,102272.06
2023-10-09T23:53:36.923Z,102258.97
2023-10-09T23:56:11.549Z,102259.19
2023-10-09T23:58:42.150Z,102257.38
